AirNav   Air Wisconsin Up To $57,000 Bonus
 
 1240 users online  

34CO Simons Airport
Aurora, Colorado, USA

GOING TO AURORA?


FAA INFORMATION EFFECTIVE 25 MARCH 2021

Location

FAA Identifier: 34CO
Lat/Long: 39-42-58.9550N 104-43-56.8950W
39-42.982583N 104-43.948250W
39.7163764,-104.7324708
(estimated)
Elevation: 5525 ft. / 1684 m (estimated)
Variation: 11E (1985)
From city: 4 miles SE of AURORA, CO
Time zone: UTC -6 (UTC -7 during Standard Time)
Zip code: 80018

Airport Operations

Airport use: Private use. Permission required prior to landing
Activation date: 08/1981
Control tower: no
ARTCC: DENVER CENTER
FSS: DENVER FLIGHT SERVICE STATION
Attendance: UNATNDD
Wind indicator: yes
Segmented circle: no

Airport Communications

WX ASOS at DEN (9 nm N): PHONE 303-342-1920
WX AWOS-3 at CFO (10 nm NE): 119.025 (303-261-9104)
WX ASOS at APA (10 nm SW): PHONE 720-873-2799

Nearby radio navigation aids

VOR radial/distance  VOR name  Freq  Var
FQFr276/5.4FALCON VORTAC116.3011E
DENr202/6.6DENVER VOR/DME117.9008E
DVVr197/11.8MILE HIGH VORTAC114.7008E
BJCr111/22.1JEFFCO VOR/DME115.4011E

Airport Services

Runway Information

Runway NW/SE

Dimensions: 2400 x 30 ft. / 732 x 9 m
Surface: dirt/gravel
RUNWAY NW  RUNWAY SE
Traffic pattern: leftleft

Airport Ownership and Management from official FAA records

Ownership: Privately-owned
Owner: WILLIAM SIMONS
22285 EAST ALAMEDA
AURORA, CO 80011
Phone 303-366-8831
Manager: WILLIAM SIMONS
22285 EAST ALAMEDA
AURORA, CO 80011
Phone 303-366-8831

Airport Operational Statistics

Aircraft based on the field: 2
Single engine airplanes: 2
    

Additional Remarks

TAKEOFFS AND LANDINGS DIRECTED BY BUCKLEY ANG BASE ATCT.
FOR CD CTC DENVER APCH AT 303-342-1916.

Instrument Procedures

There are no published instrument procedures at 34CO.

Some nearby airports with instrument procedures:

KBKF - Buckley Air Force Base (1 nm SW)
KDEN - Denver International Airport (9 nm N)
KCFO - Colorado Air and Space Port Airport (10 nm NE)
KAPA - Centennial Airport (10 nm SW)
KBJC - Rocky Mountain Metro Airport (21 nm NW)
 
Loc | Ops | Rwys | IFR | FBO | Links
Com | Nav | Svcs | Stats | Notes

AirBoss

 
Area around 34CO (Simons Airport)
 
Road maps at: MapQuest Bing Google
 
Aerial photo
No photo
 
Sectional chart

 
Airport distance calculator
Flying to Simons Airport? Find the distance to fly.

From to 34CO

Sunrise and sunset
Times for 17-Apr-2021
 Local
(UTC-6)
 Zulu
(UTC)
Morning civil twilight05:5111:51
Sunrise06:1912:19
Sunset19:3801:38
Evening civil twilight20:0602:06

Current date and time
Zulu (UTC)  17-Apr-2021 14:54:43
Local (UTC-6)  17-Apr-2021 08:54:43
 
METAR
KBKF 171058Z 35006KT 10SM BKN017 OVC030 M02/M02 A3021 RMK AO2A SLP248 T10181019
KDEN 
8nm NE 
171353Z 27007KT 10SM FEW033 BKN050 M01/M04 A3023 RMK AO2 SLP250 T10061039
KCFO 
10nm NE 
171349Z 00000KT 10SM SCT029 OVC046 01/M02 A3024
KAPA 
10nm SW 
171353Z 34007KT 10SM FEW050 OVC060 M01/M06 A3022 RMK AO2 SLP264 T10111056 $
TAF
KBKF 170900Z 1709/1815 VRB06KT 9999 BKN025 OVC035 620259 QNH3020INS BECMG 1715/1716 32009KT 9999 SCT025 BKN040 620409 QNH3018INS BECMG 1720/1721 35009KT 9999 FEW060 QNH3014INS TX08/1723Z TNM06/1712Z
KDEN 
8nm NE 
171243Z 1713/1818 34007KT P6SM SCT021 SCT026 OVC035 FM171600 36010KT P6SM SCT015 BKN025 FM172100 01010KT P6SM BKN035 BKN090 FM180300 26008KT P6SM FEW090 SCT180 FM180600 21008KT P6SM SKC
KAPA 
10nm SW 
171332Z 1714/1812 34004KT P6SM VCSH FEW017 SCT024 OVC050 FM171500 28008KT P6SM SCT015 BKN025 BKN030 FM171700 01008KT P6SM SCT015 BKN025 FM172200 28006KT P6SM SCT035 BKN090 FM180300 26008KT P6SM SKC
NOTAMs
Click for the latest NOTAMs
NOTAMs are issued by the DoD/FAA and will open in a separate window not controlled by AirNav.

 

 
 

Would you like to see your business listed on this page?

 If your business provides an interesting product or service to pilots, flight crews, aircraft, or users of the Simons Airport, you should consider listing it here.  To start the listing process, click on the button below
 
Add a business
 

Other Pages about Simons Airport

Update a link
 
Copyright © AirNav, LLC. All rights reserved. Privacy Policy  Contact